Phuket, Thailand

6:26 PM ICT on December 22, 2014 (GMT +0700)
Phuket International | Change Station
CLOSE
Current Station
Airport
Location: Phuket,
Elevation: 30 ft
Nearby Weather Stations

Elev 30 ft 8.11 °N, 98.32 °E | Updated 26 minutes ago

Light Rain
Light Rain
79 °F
Feels Like 79 °F
N
6
Wind Variable Wind from ENE

Today
High -- | Low -- °F
--% Chance of Precip.
Yesterday
High -- | Low -- °F
Precip. -- in
6:35 AM 6:14 PM
New Moon, 0% visible
Pressure 29.77 in
Visibility 4.3 miles
Clouds Scattered Clouds 1600 ft
Mostly Cloudy 10000 ft
Mostly Cloudy 30000 ft
Dew Point 72 °F
Humidity 78%
Rainfall 0.00 in
Snow Depth Not available.
UV 0 out of 12
Pollen Not available.
Air Quality Not available.
Flu Activity Not available.
METAR VTSP 221100Z 06005KT 7000 -RA SCT016 BKN100 BKN300 26/22 Q1008 A2977 NOSIG

More Conditions Fewer Conditions

Pressure 29.77 in
Visibility 4.3 miles
Clouds Scattered Clouds 1600 ft
Mostly Cloudy 10000 ft
Mostly Cloudy 30000 ft
Dew Point 72 °F
Humidity 78%
Rainfall 0.00 in
Snow Depth Not available.
UV 0 out of 12
Pollen Not available.
Air Quality Not available.
Flu Activity Not available.
METAR VTSP 221100Z 06005KT 7000 -RA SCT016 BKN100 BKN300 26/22 Q1008 A2977 NOSIG

More Conditions Fewer Conditions

10-Day Weather Forecast

Almanac

Astronomy

Dec. 22, 2014 Rise Set
Actual Time
Civil Twilight
Nautical Twilight
Astronomical Twilight
Moon
Length of Visible Light
Length of Day
Tomorrow will be .
, % of the Moon is Illuminated

Today's Extremes

Country Highs Country Lows

Community

WunderPhotos

Upload Photos

1,779,587 photos uploaded!

WunderBlogs® & News

Nearby

Air Quality

  Air Quality AQ Index Pollutant
Not available.

Snow Depth

Station Depth Elevation

Earthquake Activity

City Distance Mag. Time & Date
Minimum magnitude displayed is 2.5.

Coastal Water Temperatures

Place Temperature

Nearby Weather Stations